Time;durP1;ratioP1;P1;durP2;ratioP2;P2;SDS_P1;SDS_P2;PMS_P1;PMS_P2;Temp;Humidity;BMP_temperature;BMP_pressure;BME280_temperature;BME280_humidity;BME280_pressure;Samples;Min_cycle;Max_cycle;Signal;HPM_P1;HPM_P2
2023/09/13 00:01:40;;;;;;;0.20;0.20;;;18.70;99.90;;;;;;5076834;28;20074;-83
2023/09/13 00:04:06;;;;;;;0.20;0.20;;;18.70;99.90;;;;;;5093341;28;20051;-83
2023/09/13 00:06:31;;;;;;;0.17;0.17;;;18.70;99.90;;;;;;5084667;28;20531;-83
2023/09/13 00:08:57;;;;;;;0.20;0.20;;;18.70;99.90;;;;;;5086293;28;20052;-82
2023/09/13 00:11:23;;;;;;;0.20;0.20;;;18.70;99.90;;;;;;5082657;28;20122;-83
2023/09/13 00:13:48;;;;;;;0.17;0.17;;;18.60;99.90;;;;;;5093692;28;20040;-82
2023/09/13 00:16:14;;;;;;;0.20;0.20;;;18.60;99.90;;;;;;5088533;28;20484;-83
2023/09/13 00:18:40;;;;;;;0.20;0.20;;;18.60;99.90;;;;;;5090054;28;20044;-82
2023/09/13 00:21:10;;;;;;;0.20;0.20;;;18.60;99.90;;;;;;5087117;28;20046;-83
2023/09/13 00:23:36;;;;;;;0.15;0.15;;;18.60;99.90;;;;;;5073183;28;20071;-82
2023/09/13 00:26:02;;;;;;;0.10;0.10;;;18.50;99.90;;;;;;5087663;28;20072;-83
2023/09/13 00:28:27;;;;;;;0.10;0.10;;;18.50;99.90;;;;;;5088561;28;20706;-82
2023/09/13 00:30:53;;;;;;;0.13;0.13;;;18.50;99.90;;;;;;5087459;28;20063;-82
2023/09/13 00:33:19;;;;;;;0.20;0.20;;;18.50;99.90;;;;;;5083590;28;20032;-82
2023/09/13 00:35:45;;;;;;;0.20;0.20;;;18.40;99.90;;;;;;5087060;28;20079;-83
2023/09/13 00:38:11;;;;;;;0.10;0.10;;;18.40;99.90;;;;;;5080967;28;20093;-82
2023/09/13 00:40:37;;;;;;;0.20;0.20;;;18.40;99.90;;;;;;5087465;28;20059;-83
2023/09/13 00:43:03;;;;;;;0.10;0.10;;;18.40;99.90;;;;;;5086556;28;20121;-82
2023/09/13 00:45:31;;;;;;;0.10;0.10;;;18.30;99.90;;;;;;5086544;28;20048;-84
2023/09/13 00:47:58;;;;;;;0.10;0.10;;;18.30;99.90;;;;;;5085962;28;20040;-84
2023/09/13 00:50:24;;;;;;;0.20;0.20;;;18.30;99.90;;;;;;5086844;28;20095;-83
2023/09/13 00:52:51;;;;;;;0.20;0.20;;;18.30;99.90;;;;;;5088552;28;20040;-83
2023/09/13 00:55:18;;;;;;;0.10;0.10;;;18.30;99.90;;;;;;5088142;28;20050;-86
2023/09/13 00:57:46;;;;;;;0.10;0.10;;;18.30;99.90;;;;;;5087580;28;20048;-83
2023/09/13 01:00:13;;;;;;;0.20;0.20;;;18.20;99.90;;;;;;5088992;28;20077;-83
2023/09/13 01:02:40;;;;;;;0.20;0.20;;;18.20;99.90;;;;;;5085210;28;20055;-82
2023/09/13 01:05:11;;;;;;;0.20;0.20;;;18.20;99.90;;;;;;5088729;28;20047;-82
2023/09/13 01:07:40;;;;;;;;;;;18.20;99.90;;;;;;5077324;28;20044;-83
2023/09/13 01:10:07;;;;;;;0.10;0.10;;;18.10;99.90;;;;;;5082936;28;20007;-84
2023/09/13 01:12:33;;;;;;;0.20;0.20;;;18.10;99.90;;;;;;5085656;28;20044;-82
2023/09/13 01:15:00;;;;;;;0.20;0.20;;;18.10;99.90;;;;;;5086829;28;20052;-82
2023/09/13 01:17:53;;;;;;;0.20;0.20;;;18.10;99.90;;;;;;5082446;28;20130;-83
2023/09/13 01:20:25;;;;;;;0.20;0.20;;;18.10;99.90;;;;;;5081542;28;20052;-83
2023/09/13 01:23:06;;;;;;;0.20;0.20;;;18.00;99.90;;;;;;5084794;28;20062;-83
2023/09/13 01:25:53;;;;;;;0.20;0.20;;;18.00;99.90;;;;;;5085184;28;20052;-83
2023/09/13 01:28:44;;;;;;;0.10;0.10;;;18.00;99.90;;;;;;5078152;28;20048;-83
2023/09/13 01:31:11;;;;;;;0.20;0.20;;;17.90;99.90;;;;;;5085398;28;20075;-83
2023/09/13 01:33:37;;;;;;;0.20;0.20;;;18.00;99.90;;;;;;5084504;28;20056;-83
2023/09/13 01:36:04;;;;;;;0.15;0.15;;;18.00;99.90;;;;;;5084742;28;20596;-83
2023/09/13 01:38:30;;;;;;;0.20;0.20;;;17.90;99.90;;;;;;5085084;28;20051;-84
2023/09/13 01:41:24;;;;;;;0.10;0.10;;;17.90;99.90;;;;;;5086550;28;20040;-81
2023/09/13 01:43:53;;;;;;;0.10;0.10;;;17.90;99.90;;;;;;5096901;28;20044;-82
2023/09/13 01:46:20;;;;;;;0.10;0.10;;;17.80;99.90;;;;;;5081056;28;20047;-84
2023/09/13 01:48:47;;;;;;;0.10;0.10;;;17.80;99.90;;;;;;5087053;28;20048;-85
2023/09/13 01:51:13;;;;;;;0.10;0.10;;;17.80;99.90;;;;;;5083552;28;20089;-82
2023/09/13 01:53:46;;;;;;;0.17;0.17;;;17.80;99.90;;;;;;5086915;28;20056;-82
2023/09/13 01:56:11;;;;;;;0.20;0.20;;;17.80;99.90;;;;;;5086760;28;20047;-82
2023/09/13 01:58:37;;;;;;;0.10;0.10;;;17.80;99.90;;;;;;5089808;28;20032;-83
2023/09/13 02:01:03;;;;;;;0.20;0.20;;;17.70;99.90;;;;;;5084353;28;20048;-82
2023/09/13 02:03:28;;;;;;;0.10;0.10;;;17.80;99.90;;;;;;5093345;28;20392;-82
2023/09/13 02:05:54;;;;;;;0.20;0.20;;;17.70;99.90;;;;;;5089880;28;20238;-83
2023/09/13 02:08:20;;;;;;;0.10;0.10;;;17.70;99.90;;;;;;5085998;28;20550;-82
2023/09/13 02:10:48;;;;;;;0.17;0.17;;;17.70;99.90;;;;;;5084116;28;20047;-82
2023/09/13 02:13:14;;;;;;;0.10;0.10;;;17.70;99.90;;;;;;5090419;28;20040;-82
2023/09/13 02:15:40;;;;;;;0.10;0.10;;;17.70;99.90;;;;;;5090305;28;20055;-83
2023/09/13 02:18:07;;;;;;;0.10;0.10;;;17.70;99.90;;;;;;5089715;28;20476;-82
2023/09/13 02:20:33;;;;;;;0.10;0.10;;;17.70;99.90;;;;;;5089736;28;20130;-82
2023/09/13 02:22:59;;;;;;;0.10;0.10;;;17.70;99.90;;;;;;5092070;28;20055;-82
2023/09/13 02:25:24;;;;;;;0.10;0.10;;;17.70;99.90;;;;;;5091219;28;20040;-82
2023/09/13 02:27:50;;;;;;;0.17;0.17;;;17.70;99.90;;;;;;5090460;28;20107;-82
2023/09/13 02:30:16;;;;;;;0.20;0.20;;;17.60;99.90;;;;;;5091125;28;20678;-82
2023/09/13 02:32:41;;;;;;;0.10;0.10;;;17.60;99.90;;;;;;5090505;28;20036;-82
2023/09/13 02:35:08;;;;;;;0.20;0.20;;;17.60;99.90;;;;;;5089838;28;20044;-82
2023/09/13 02:37:34;;;;;;;0.10;0.10;;;17.60;99.90;;;;;;5090737;28;20105;-82
2023/09/13 02:39:59;;;;;;;0.20;0.20;;;17.60;99.90;;;;;;5090632;28;20039;-82
2023/09/13 02:42:26;;;;;;;0.10;0.10;;;17.60;99.90;;;;;;5089697;28;20044;-82
2023/09/13 02:44:52;;;;;;;0.10;0.10;;;17.60;99.90;;;;;;5089894;28;20135;-82
2023/09/13 02:47:17;;;;;;;0.10;0.10;;;17.60;99.90;;;;;;5088025;28;20159;-81
2023/09/13 02:49:43;;;;;;;0.10;0.10;;;17.60;99.90;;;;;;5088309;28;20075;-82
2023/09/13 02:52:09;;;;;;;0.10;0.10;;;17.60;99.90;;;;;;5090343;28;20036;-83
2023/09/13 02:54:34;;;;;;;0.20;0.20;;;17.60;99.90;;;;;;5090690;28;20131;-82
2023/09/13 02:57:00;;;;;;;0.10;0.10;;;17.60;99.90;;;;;;5089494;28;20444;-82
2023/09/13 02:59:26;;;;;;;0.20;0.20;;;17.60;99.90;;;;;;5091783;28;20070;-82
2023/09/13 03:01:52;;;;;;;0.10;0.10;;;17.60;99.90;;;;;;5089627;28;20135;-82
2023/09/13 03:04:17;;;;;;;0.20;0.20;;;17.60;99.90;;;;;;5091366;28;20459;-82
2023/09/13 03:06:43;;;;;;;1.25;0.40;;;17.60;99.90;;;;;;5091909;28;20048;-82
2023/09/13 03:09:09;;;;;;;0.20;0.20;;;17.60;99.90;;;;;;5086850;28;20407;-84
2023/09/13 03:11:36;;;;;;;0.15;0.15;;;17.60;99.90;;;;;;5085804;28;20032;-82
2023/09/13 03:14:02;;;;;;;0.20;0.20;;;17.60;99.90;;;;;;5089127;28;20044;-82
2023/09/13 03:16:28;;;;;;;0.13;0.13;;;17.60;99.90;;;;;;5087445;28;20040;-81
2023/09/13 03:18:55;;;;;;;0.10;0.10;;;17.60;99.90;;;;;;5075813;28;20078;-82
2023/09/13 03:21:20;;;;;;;0.20;0.20;;;17.60;99.90;;;;;;5086535;28;20040;-82
2023/09/13 03:23:51;;;;;;;0.20;0.20;;;17.50;99.90;;;;;;5089121;28;20109;-82
2023/09/13 03:26:22;;;;;;;0.20;0.20;;;17.50;99.90;;;;;;5087383;28;20472;-82
2023/09/13 03:28:53;;;;;;;0.10;0.10;;;17.50;99.90;;;;;;5091161;28;20134;-81
2023/09/13 03:31:20;;;;;;;0.15;0.15;;;17.50;99.90;;;;;;5088492;28;20487;-83
2023/09/13 03:33:47;;;;;;;0.13;0.13;;;17.50;99.90;;;;;;5090008;28;20035;-82
2023/09/13 03:36:14;;;;;;;0.10;0.10;;;17.50;99.90;;;;;;5088064;28;20131;-82
2023/09/13 03:38:41;;;;;;;0.10;0.10;;;17.50;99.90;;;;;;5088537;28;20071;-82
2023/09/13 03:41:09;;;;;;;0.10;0.10;;;17.40;99.90;;;;;;5090113;28;20131;-82
2023/09/13 03:43:35;;;;;;;0.20;0.20;;;17.40;99.90;;;;;;5081452;28;20116;-81
2023/09/13 03:46:03;;;;;;;0.20;0.20;;;17.40;99.90;;;;;;5087656;28;20410;-81
2023/09/13 03:48:30;;;;;;;0.20;0.20;;;17.40;99.90;;;;;;5088792;28;20040;-83
2023/09/13 03:50:56;;;;;;;0.10;0.10;;;17.40;99.90;;;;;;5088977;28;20538;-82
2023/09/13 03:53:22;;;;;;;0.20;0.20;;;17.40;99.90;;;;;;5087587;28;20093;-82
2023/09/13 03:55:47;;;;;;;0.20;0.20;;;17.30;99.90;;;;;;5089242;28;20047;-81
2023/09/13 03:58:13;;;;;;;0.10;0.10;;;17.30;99.90;;;;;;5089381;28;20044;-82
2023/09/13 04:00:38;;;;;;;0.20;0.20;;;17.30;99.90;;;;;;5088650;28;20087;-81
2023/09/13 04:03:05;;;;;;;0.10;0.10;;;17.30;99.90;;;;;;5089683;28;20043;-82
2023/09/13 04:05:31;;;;;;;0.10;0.10;;;17.30;99.90;;;;;;5090102;28;20051;-82
2023/09/13 04:08:01;;;;;;;0.20;0.20;;;17.20;99.90;;;;;;5088731;28;20372;-81
2023/09/13 04:10:26;;;;;;;0.10;0.10;;;17.20;99.90;;;;;;5071392;28;20094;-82
2023/09/13 04:12:52;;;;;;;0.20;0.20;;;17.20;99.90;;;;;;5090528;28;20067;-80
2023/09/13 04:15:18;;;;;;;0.15;0.15;;;17.20;99.90;;;;;;5088647;28;20402;-81
2023/09/13 04:17:43;;;;;;;0.10;0.10;;;17.20;99.90;;;;;;5082746;28;20047;-83
2023/09/13 04:20:10;;;;;;;0.20;0.20;;;17.10;99.90;;;;;;5086978;28;20043;-83
2023/09/13 04:22:36;;;;;;;0.20;0.20;;;17.10;99.90;;;;;;5090739;28;20040;-83
2023/09/13 04:25:04;;;;;;;0.20;0.20;;;17.10;99.90;;;;;;5089019;28;20051;-82
2023/09/13 04:27:30;;;;;;;0.13;0.13;;;17.00;99.90;;;;;;5088130;28;20052;-82
2023/09/13 04:29:56;;;;;;;0.10;0.10;;;17.00;99.90;;;;;;5089978;28;20148;-83
2023/09/13 04:32:22;;;;;;;0.13;0.13;;;17.00;99.90;;;;;;5085824;28;20525;-82
2023/09/13 04:34:47;;;;;;;0.20;0.20;;;16.90;99.90;;;;;;5088790;28;20056;-83
2023/09/13 04:37:15;;;;;;;0.20;0.20;;;16.80;99.90;;;;;;5084920;28;20395;-84
2023/09/13 04:39:41;;;;;;;0.20;0.20;;;16.80;99.90;;;;;;5088510;28;20689;-83
2023/09/13 04:42:07;;;;;;;0.20;0.20;;;16.80;99.90;;;;;;5084819;28;20087;-83
2023/09/13 04:44:32;;;;;;;0.20;0.20;;;16.70;99.90;;;;;;5086771;28;20091;-83
2023/09/13 04:46:59;;;;;;;0.10;0.10;;;16.70;99.90;;;;;;5083683;28;20142;-83
2023/09/13 04:49:25;;;;;;;0.15;0.15;;;16.60;99.90;;;;;;5083804;28;20507;-84
2023/09/13 04:51:52;;;;;;;0.10;0.10;;;16.60;99.90;;;;;;5088202;28;20035;-83
2023/09/13 04:54:18;;;;;;;0.10;0.10;;;16.50;99.90;;;;;;5088230;28;20052;-83
2023/09/13 04:56:44;;;;;;;0.20;0.20;;;16.40;99.90;;;;;;5086928;28;20044;-83
2023/09/13 04:59:09;;;;;;;0.10;0.10;;;16.30;99.90;;;;;;5088271;28;20063;-84
2023/09/13 05:01:35;;;;;;;0.20;0.20;;;16.20;99.90;;;;;;5081799;28;20139;-85
2023/09/13 05:04:01;;;;;;;0.10;0.10;;;16.10;99.90;;;;;;5087291;28;20055;-83
2023/09/13 05:06:26;;;;;;;0.20;0.20;;;16.00;99.90;;;;;;5087518;28;20036;-83
2023/09/13 05:08:55;;;;;;;0.10;0.10;;;15.90;99.90;;;;;;5088132;28;20088;-82
2023/09/13 05:11:21;;;;;;;0.20;0.20;;;15.80;99.90;;;;;;5084873;28;20051;-83
2023/09/13 05:13:47;;;;;;;0.10;0.10;;;15.70;99.90;;;;;;5069721;28;20028;-81
2023/09/13 05:16:19;;;;;;;0.13;0.13;;;15.60;99.90;;;;;;5087598;28;20116;-81
2023/09/13 05:18:48;;;;;;;0.20;0.20;;;15.50;99.90;;;;;;5084666;28;20043;-84
2023/09/13 05:21:14;;;;;;;0.20;0.20;;;15.50;99.90;;;;;;5087467;28;20032;-82
2023/09/13 05:23:40;;;;;;;0.20;0.20;;;15.40;99.90;;;;;;5087672;28;20755;-84
2023/09/13 05:26:06;;;;;;;0.20;0.20;;;15.30;99.90;;;;;;5088904;28;20406;-83
2023/09/13 05:28:33;;;;;;;0.10;0.10;;;15.30;99.90;;;;;;5087602;28;20433;-83
2023/09/13 05:31:00;;;;;;;0.20;0.20;;;15.20;99.90;;;;;;5088651;28;20047;-82
2023/09/13 05:33:26;;;;;;;0.10;0.10;;;15.20;99.90;;;;;;5094141;28;20054;-83
2023/09/13 05:35:52;;;;;;;0.17;0.17;;;15.20;99.90;;;;;;5092608;28;20048;-82
2023/09/13 05:38:18;;;;;;;0.10;0.10;;;15.20;99.90;;;;;;5093392;28;20380;-83
2023/09/13 05:40:44;;;;;;;0.20;0.20;;;15.10;99.90;;;;;;5092401;28;20058;-84
2023/09/13 05:43:10;;;;;;;0.10;0.10;;;15.00;99.90;;;;;;5089208;28;20044;-83
2023/09/13 05:45:36;;;;;;;0.20;0.20;;;15.00;99.90;;;;;;5090455;28;20078;-83
2023/09/13 05:48:02;;;;;;;0.20;0.20;;;15.00;99.90;;;;;;5094286;28;20071;-83
2023/09/13 05:50:28;;;;;;;0.10;0.10;;;15.10;99.90;;;;;;5086218;28;20076;-83
2023/09/13 05:52:54;;;;;;;0.20;0.20;;;15.10;99.90;;;;;;5086343;28;20080;-83
2023/09/13 05:55:20;;;;;;;0.20;0.20;;;14.80;99.90;;;;;;5092572;28;20127;-83
2023/09/13 05:57:46;;;;;;;0.17;0.17;;;14.80;99.90;;;;;;5088779;28;20111;-84
2023/09/13 06:00:13;;;;;;;0.10;0.10;;;14.80;99.90;;;;;;5091886;28;20052;-86
2023/09/13 06:02:39;;;;;;;0.20;0.20;;;14.90;99.90;;;;;;5090177;28;20040;-84
2023/09/13 06:05:05;;;;;;;0.10;0.10;;;14.80;99.90;;;;;;5089447;28;20130;-83
2023/09/13 06:07:31;;;;;;;0.10;0.10;;;14.70;99.90;;;;;;5089925;28;20473;-83
2023/09/13 06:09:58;;;;;;;0.20;0.20;;;14.60;99.90;;;;;;5091084;28;20119;-83
2023/09/13 06:12:25;;;;;;;0.17;0.17;;;14.80;99.90;;;;;;5088269;28;20101;-84
2023/09/13 06:14:53;;;;;;;0.10;0.10;;;14.70;99.90;;;;;;5086034;28;20660;-83
2023/09/13 06:17:19;;;;;;;0.17;0.17;;;14.60;99.90;;;;;;5087446;28;20063;-82
2023/09/13 06:19:45;;;;;;;0.10;0.10;;;14.80;99.90;;;;;;5078290;28;20040;-84
2023/09/13 06:22:10;;;;;;;0.20;0.20;;;14.70;99.90;;;;;;5089508;28;20525;-84
2023/09/13 06:24:36;;;;;;;0.10;0.10;;;14.70;99.90;;;;;;5091564;28;20311;-84
2023/09/13 06:27:01;;;;;;;0.10;0.10;;;14.70;99.90;;;;;;5090139;28;20044;-84
2023/09/13 06:29:27;;;;;;;0.20;0.20;;;14.40;99.90;;;;;;5094846;28;20047;-83
2023/09/13 06:31:55;;;;;;;0.20;0.20;;;14.70;99.90;;;;;;5090716;28;20050;-83
2023/09/13 06:34:20;;;;;;;0.10;0.10;;;14.40;99.90;;;;;;5090297;28;20494;-84
2023/09/13 06:36:48;;;;;;;0.03;0.03;;;14.60;99.90;;;;;;5085055;28;20044;-84
2023/09/13 06:39:14;;;;;;;0.10;0.10;;;14.60;99.90;;;;;;5110009;27;20040;-86
2023/09/13 06:41:40;;;;;;;0.10;0.10;;;14.20;99.90;;;;;;5089945;28;20051;-84
2023/09/13 06:44:09;;;;;;;0.13;0.13;;;14.30;99.90;;;;;;5090818;28;20036;-88
2023/09/13 06:46:36;;;;;;;0.20;0.20;;;14.30;99.90;;;;;;5091290;28;20083;-86
2023/09/13 06:49:03;;;;;;;0.10;0.10;;;14.60;99.90;;;;;;5091368;28;20047;-84
2023/09/13 06:51:29;;;;;;;0.10;0.10;;;14.40;99.90;;;;;;5090528;28;20044;-84
2023/09/13 06:53:55;;;;;;;0.10;0.10;;;14.50;99.90;;;;;;5091442;28;20051;-84
2023/09/13 06:56:20;;;;;;;0.15;0.15;;;14.60;99.90;;;;;;5091134;28;20048;-84
2023/09/13 06:58:46;;;;;;;0.10;0.10;;;14.50;99.90;;;;;;5086528;28;20044;-83
2023/09/13 07:01:13;;;;;;;0.15;0.15;;;14.60;99.90;;;;;;5089943;28;20051;-85
2023/09/13 07:03:38;;;;;;;0.20;0.20;;;14.50;99.90;;;;;;5091753;28;20093;-84
2023/09/13 07:06:05;;;;;;;0.17;0.17;;;14.30;99.90;;;;;;5090362;28;20043;-84
2023/09/13 07:08:31;;;;;;;0.10;0.10;;;14.20;99.90;;;;;;5092477;28;20036;-84
2023/09/13 07:10:56;;;;;;;0.10;0.10;;;14.30;99.90;;;;;;5096986;28;20051;-84
2023/09/13 07:13:22;;;;;;;0.10;0.10;;;14.50;99.90;;;;;;5097028;28;20498;-84
2023/09/13 07:15:48;;;;;;;0.10;0.10;;;14.30;99.90;;;;;;5089755;28;20059;-87
2023/09/13 07:18:14;;;;;;;0.20;0.20;;;14.60;99.90;;;;;;5089324;28;20126;-85
2023/09/13 07:20:40;;;;;;;0.13;0.13;;;14.40;99.90;;;;;;5079178;28;20044;-84
2023/09/13 07:23:06;;;;;;;0.10;0.10;;;14.70;99.90;;;;;;5086144;28;20036;-86
2023/09/13 07:25:32;;;;;;;0.10;0.10;;;14.40;99.90;;;;;;5091594;28;20052;-85
2023/09/13 07:27:59;;;;;;;0.20;0.20;;;14.50;99.90;;;;;;5088903;28;20044;-88
2023/09/13 07:30:26;;;;;;;0.10;0.10;;;14.40;99.90;;;;;;5087845;28;20047;-86
2023/09/13 07:32:52;;;;;;;0.10;0.10;;;14.70;99.90;;;;;;5088443;28;20043;-86
2023/09/13 07:35:18;;;;;;;0.10;0.10;;;14.50;99.90;;;;;;5090318;28;20048;-86
2023/09/13 07:37:43;;;;;;;0.10;0.10;;;14.50;99.90;;;;;;5088323;28;20068;-87
2023/09/13 07:40:11;;;;;;;0.10;0.10;;;14.80;99.90;;;;;;5086159;28;20105;-86
2023/09/13 07:42:36;;;;;;;0.20;0.20;;;14.70;99.90;;;;;;5090553;28;20048;-88
2023/09/13 07:45:02;;;;;;;0.20;0.20;;;14.80;99.90;;;;;;5087049;28;20140;-84
2023/09/13 07:47:28;;;;;;;0.10;0.10;;;14.60;99.90;;;;;;5088035;28;20054;-89
2023/09/13 07:49:58;;;;;;;0.10;0.10;;;14.90;99.90;;;;;;5091283;28;20051;-88
2023/09/13 07:52:24;;;;;;;0.13;0.13;;;14.50;99.90;;;;;;5088357;28;20056;-85
2023/09/13 07:54:50;;;;;;;0.10;0.10;;;14.70;99.90;;;;;;5088960;28;20130;-86
2023/09/13 07:57:16;;;;;;;0.10;0.10;;;14.60;99.90;;;;;;5086818;28;20044;-85
2023/09/13 07:59:42;;;;;;;0.10;0.10;;;14.90;99.90;;;;;;5082628;28;20448;-84
2023/09/13 08:02:08;;;;;;;0.10;0.10;;;14.70;99.90;;;;;;5082938;28;20135;-85
2023/09/13 08:04:33;;;;;;;0.10;0.10;;;14.90;99.90;;;;;;5089133;28;20656;-85
2023/09/13 08:06:59;;;;;;;0.20;0.20;;;14.80;99.90;;;;;;5089136;28;20651;-85
2023/09/13 08:09:26;;;;;;;0.20;0.20;;;14.90;99.90;;;;;;5088387;28;20252;-85
2023/09/13 08:11:52;;;;;;;0.10;0.10;;;15.10;99.90;;;;;;5087914;28;20050;-84
2023/09/13 08:14:18;;;;;;;0.10;0.10;;;15.00;99.90;;;;;;5082531;28;20499;-85
2023/09/13 08:16:44;;;;;;;0.10;0.10;;;15.20;99.90;;;;;;5079884;28;20067;-85
2023/09/13 08:19:10;;;;;;;0.20;0.20;;;15.00;99.90;;;;;;5085458;28;20539;-84
2023/09/13 08:21:36;;;;;;;0.20;0.20;;;15.30;99.90;;;;;;5087897;28;20154;-85
2023/09/13 08:24:03;;;;;;;0.20;0.20;;;15.10;99.90;;;;;;5089028;28;20047;-87
2023/09/13 08:26:30;;;;;;;0.10;0.10;;;15.20;99.90;;;;;;5088091;28;20154;-88
2023/09/13 08:28:56;;;;;;;0.10;0.10;;;15.50;99.90;;;;;;5089931;28;20048;-86
2023/09/13 08:31:25;;;;;;;0.10;0.10;;;15.40;99.90;;;;;;5089265;28;20036;-88
2023/09/13 08:33:54;;;;;;;0.10;0.10;;;15.40;99.90;;;;;;5085180;28;20074;-87
2023/09/13 08:36:20;;;;;;;0.10;0.10;;;15.40;99.90;;;;;;5069492;28;20052;-86
2023/09/13 08:38:46;;;;;;;0.20;0.20;;;15.40;99.90;;;;;;5089110;28;20043;-88
2023/09/13 08:41:14;;;;;;;0.10;0.10;;;15.50;99.90;;;;;;5089384;28;20101;-86
2023/09/13 08:43:40;;;;;;;0.20;0.20;;;15.50;99.90;;;;;;5088756;28;20541;-87
2023/09/13 08:46:07;;;;;;;0.15;0.15;;;15.50;99.90;;;;;;5088937;28;20083;-87
2023/09/13 08:48:34;;;;;;;0.10;0.10;;;15.50;99.90;;;;;;5088601;28;20082;-87
2023/09/13 08:51:02;;;;;;;0.15;0.15;;;15.60;99.90;;;;;;5088368;28;20093;-87
2023/09/13 08:53:30;;;;;;;0.17;0.17;;;15.80;99.90;;;;;;5090100;28;20241;-88
2023/09/13 08:55:56;;;;;;;0.10;0.10;;;15.80;99.90;;;;;;5088926;28;20040;-87
2023/09/13 08:58:22;;;;;;;0.10;0.10;;;15.90;99.90;;;;;;5087580;28;20048;-88
2023/09/13 09:00:51;;;;;;;0.20;0.20;;;15.90;99.90;;;;;;5086518;28;20524;-87
2023/09/13 09:03:23;;;;;;;0.10;0.10;;;15.70;99.90;;;;;;5087594;28;20055;-88
2023/09/13 09:05:50;;;;;;;0.20;0.20;;;16.00;99.90;;;;;;5089681;28;20043;-87
2023/09/13 09:08:17;;;;;;;0.10;0.10;;;15.70;99.90;;;;;;5090404;28;20360;-88
2023/09/13 09:10:43;;;;;;;0.10;0.10;;;15.80;99.90;;;;;;5088331;28;20056;-87
2023/09/13 09:13:10;;;;;;;0.10;0.10;;;15.80;99.90;;;;;;5089700;28;20127;-88
2023/09/13 09:15:38;;;;;;;0.10;0.10;;;15.60;99.90;;;;;;5085734;28;20052;-87
2023/09/13 09:18:08;;;;;;;0.15;0.15;;;15.60;99.90;;;;;;5080396;28;20047;-88
2023/09/13 09:20:37;;;;;;;0.13;0.13;;;15.60;99.90;;;;;;5086466;28;20124;-87
2023/09/13 09:23:04;;;;;;;0.10;0.10;;;15.60;99.90;;;;;;5089668;28;20044;-85
2023/09/13 09:25:31;;;;;;;0.10;0.10;;;15.70;99.90;;;;;;5090010;28;20090;-87
2023/09/13 09:27:56;;;;;;;0.10;0.10;;;15.70;99.90;;;;;;5089151;28;20063;-88
2023/09/13 09:30:32;;;;;;;0.10;0.10;;;15.60;99.90;;;;;;5089215;28;20056;-86
2023/09/13 09:33:06;;;;;;;0.10;0.10;;;15.70;99.90;;;;;;5086100;28;20051;-87
2023/09/13 09:35:32;;;;;;;0.13;0.13;;;15.70;99.90;;;;;;5090212;28;20454;-85
2023/09/13 09:37:58;;;;;;;0.10;0.10;;;15.70;99.90;;;;;;5091404;28;20289;-86
2023/09/13 09:40:24;;;;;;;0.10;0.10;;;15.80;99.90;;;;;;5088961;28;20394;-88
2023/09/13 09:42:57;;;;;;;0.10;0.10;;;15.70;99.90;;;;;;5089094;28;20046;-87
2023/09/13 09:45:23;;;;;;;0.10;0.10;;;15.70;99.90;;;;;;5088884;28;20059;-88
2023/09/13 09:47:50;;;;;;;0.10;0.10;;;15.70;99.90;;;;;;5087015;28;20475;-86
2023/09/13 09:50:16;;;;;;;0.20;0.20;;;15.70;99.90;;;;;;5087631;28;20039;-86
2023/09/13 09:52:42;;;;;;;0.20;0.20;;;15.70;99.90;;;;;;5085635;28;20079;-84
2023/09/13 09:55:15;;;;;;;0.10;0.10;;;15.70;99.90;;;;;;5089810;28;20040;-87
2023/09/13 09:57:48;;;;;;;0.10;0.10;;;15.70;99.90;;;;;;5087573;28;20051;-85
2023/09/13 10:00:15;;;;;;;0.10;0.10;;;15.80;99.90;;;;;;5076550;28;20087;-85
2023/09/13 10:02:42;;;;;;;0.10;0.10;;;15.80;99.90;;;;;;5082088;28;20036;-87
2023/09/13 10:05:08;;;;;;;0.10;0.10;;;15.90;99.90;;;;;;5085712;28;20075;-85
2023/09/13 10:07:49;;;;;;;0.10;0.10;;;15.90;99.90;;;;;;5088172;28;20079;-87
2023/09/13 10:10:30;;;;;;;0.10;0.10;;;16.00;99.90;;;;;;5088089;28;20040;-86
2023/09/13 10:12:56;;;;;;;0.20;0.20;;;16.10;99.90;;;;;;5087351;28;20043;-86
2023/09/13 10:15:22;;;;;;;0.10;0.10;;;16.20;99.90;;;;;;5088660;28;20074;-86
2023/09/13 10:17:49;;;;;;;0.10;0.10;;;16.20;99.90;;;;;;5079915;28;20059;-85
2023/09/13 10:20:21;;;;;;;0.10;0.10;;;16.30;99.90;;;;;;5089178;28;20058;-86
2023/09/13 10:22:49;;;;;;;0.10;0.10;;;16.40;99.90;;;;;;5098565;28;20045;-86
2023/09/13 10:25:18;;;;;;;0.10;0.10;;;16.50;99.90;;;;;;5087250;28;20040;-86
2023/09/13 10:27:48;;;;;;;0.10;0.10;;;16.60;99.90;;;;;;5091576;28;20517;-83
2023/09/13 10:30:22;;;;;;;0.20;0.20;;;16.60;99.90;;;;;;5087711;28;20049;-84
2023/09/13 10:32:55;;;;;;;0.10;0.10;;;16.70;99.90;;;;;;5088427;28;20108;-83
2023/09/13 10:35:21;;;;;;;0.10;0.10;;;16.80;99.90;;;;;;5087724;28;20498;-85
2023/09/13 10:38:16;;;;;;;0.20;0.20;;;16.80;99.90;;;;;;5097716;28;20048;-85
2023/09/13 10:40:50;;;;;;;0.10;0.10;;;16.90;99.90;;;;;;5102926;28;20047;-84
2023/09/13 10:43:17;;;;;;;0.10;0.10;;;16.90;99.90;;;;;;5112320;28;20139;-83
2023/09/13 10:45:42;;;;;;;0.20;0.20;;;17.00;99.90;;;;;;5084572;28;20079;-84
2023/09/13 10:48:08;;;;;;;0.20;0.20;;;17.00;99.90;;;;;;5086968;28;20079;-84
2023/09/13 10:50:34;;;;;;;0.10;0.10;;;17.10;99.90;;;;;;5086958;28;20040;-84
2023/09/13 10:53:02;;;;;;;0.20;0.20;;;17.20;99.90;;;;;;5091890;28;20085;-84
2023/09/13 10:55:29;;;;;;;0.10;0.10;;;17.30;99.90;;;;;;5090689;28;20451;-84
2023/09/13 10:57:56;;;;;;;0.20;0.20;;;17.40;99.90;;;;;;5092092;28;20047;-85
2023/09/13 11:00:24;;;;;;;0.15;0.15;;;17.30;99.90;;;;;;5077668;28;20075;-84
2023/09/13 11:02:49;;;;;;;0.10;0.10;;;17.30;99.90;;;;;;5070239;28;20040;-84
2023/09/13 11:05:15;;;;;;;0.20;0.20;;;17.40;99.90;;;;;;5082554;28;20050;-84
2023/09/13 11:07:46;;;;;;;0.20;0.20;;;17.40;99.90;;;;;;5090921;28;20040;-83
2023/09/13 11:10:18;;;;;;;0.10;0.10;;;17.60;99.90;;;;;;5090645;28;20039;-83
2023/09/13 11:12:48;;;;;;;0.20;0.20;;;17.70;99.90;;;;;;5088643;28;20094;-83
2023/09/13 11:15:25;;;;;;;0.20;0.20;;;17.90;99.90;;;;;;5090546;28;20059;-84
2023/09/13 11:17:56;;;;;;;0.17;0.17;;;18.00;99.90;;;;;;5073480;28;20324;-81
2023/09/13 11:20:36;;;;;;;0.10;0.10;;;18.20;99.90;;;;;;5085267;28;20040;-83
2023/09/13 11:23:09;;;;;;;0.10;0.10;;;18.20;99.90;;;;;;5094010;28;20062;-81
2023/09/13 11:25:54;;;;;;;0.10;0.10;;;18.40;99.90;;;;;;5090147;28;20066;-81
2023/09/13 11:28:29;;;;;;;0.10;0.10;;;18.40;99.90;;;;;;5089149;28;20059;-82
2023/09/13 11:31:01;;;;;;;0.10;0.10;;;18.50;99.90;;;;;;5090236;28;20123;-81
2023/09/13 11:33:28;;;;;;;0.15;0.15;;;18.60;99.90;;;;;;5090400;28;20067;-82
2023/09/13 11:35:57;;;;;;;0.20;0.20;;;18.60;99.90;;;;;;5090497;28;20052;-81
2023/09/13 11:38:24;;;;;;;0.20;0.20;;;18.60;99.90;;;;;;5087724;28;20082;-83
2023/09/13 11:40:52;;;;;;;0.17;0.17;;;18.50;99.90;;;;;;5069355;28;20070;-81
2023/09/13 11:43:22;;;;;;;0.20;0.20;;;18.50;99.90;;;;;;5068862;28;20488;-81
2023/09/13 11:45:52;;;;;;;0.20;0.20;;;18.40;99.90;;;;;;5070468;28;20097;-82
2023/09/13 11:48:39;;;;;;;0.10;0.10;;;18.30;99.90;;;;;;5086305;28;20044;-83
2023/09/13 11:51:15;;;;;;;0.10;0.10;;;18.30;99.90;;;;;;5089101;28;20075;-83
2023/09/13 11:53:42;;;;;;;0.10;0.10;;;18.20;99.90;;;;;;5091046;28;20047;-83
2023/09/13 11:56:32;;;;;;;0.20;0.20;;;18.10;99.90;;;;;;5090393;28;20503;-82
2023/09/13 11:58:58;;;;;;;0.20;0.20;;;18.00;99.90;;;;;;5078490;28;20044;-82
2023/09/13 12:01:24;;;;;;;0.20;0.20;;;17.80;99.90;;;;;;5076923;28;20040;-83
2023/09/13 12:03:51;;;;;;;0.20;0.20;;;17.70;99.90;;;;;;5089380;28;20142;-82
2023/09/13 12:06:18;;;;;;;0.20;0.20;;;17.70;99.90;;;;;;5088485;28;20090;-83
2023/09/13 12:08:46;;;;;;;0.10;0.10;;;17.70;99.90;;;;;;5073422;28;20040;-83
2023/09/13 12:11:12;;;;;;;0.20;0.20;;;17.60;99.90;;;;;;5089292;28;20044;-82
2023/09/13 12:13:47;;;;;;;0.20;0.20;;;17.70;99.90;;;;;;5089397;28;20036;-81
2023/09/13 12:16:13;;;;;;;0.20;0.20;;;17.80;99.90;;;;;;5089224;28;20211;-82
2023/09/13 12:18:40;;;;;;;0.20;0.20;;;18.00;99.90;;;;;;5084885;28;20059;-82
2023/09/13 12:21:07;;;;;;;0.10;0.10;;;18.00;99.90;;;;;;5089532;28;20097;-83
2023/09/13 12:23:37;;;;;;;0.20;0.20;;;18.10;99.90;;;;;;5089629;28;20071;-82
2023/09/13 12:26:13;;;;;;;0.20;0.20;;;18.20;99.90;;;;;;5089039;28;20091;-82
2023/09/13 12:28:39;;;;;;;0.20;0.20;;;18.30;99.90;;;;;;5089761;28;20056;-82
2023/09/13 12:31:10;;;;;;;0.20;0.20;;;18.30;99.90;;;;;;5089357;28;20040;-82
2023/09/13 12:33:39;;;;;;;0.20;0.20;;;18.20;99.90;;;;;;5087602;28;20048;-82
2023/09/13 12:36:05;;;;;;;0.13;0.13;;;18.20;99.90;;;;;;5089948;28;20132;-82
2023/09/13 12:38:45;;;;;;;0.10;0.10;;;18.00;99.90;;;;;;5088376;28;20063;-84
2023/09/13 12:41:26;;;;;;;0.20;0.20;;;17.90;99.90;;;;;;5088888;28;20048;-84
2023/09/13 12:43:52;;;;;;;0.20;0.20;;;17.70;99.90;;;;;;5090480;28;20097;-84
2023/09/13 12:46:20;;;;;;;0.10;0.10;;;17.50;99.90;;;;;;5089059;28;20044;-84
2023/09/13 12:48:46;;;;;;;0.20;0.20;;;17.40;99.90;;;;;;5089305;28;20158;-84
2023/09/13 12:51:18;;;;;;;0.20;0.20;;;17.30;99.90;;;;;;5090072;28;20054;-84